Time;durP1;ratioP1;P1;durP2;ratioP2;P2;SDS_P1;SDS_P2;PMS_P1;PMS_P2;Temp;Humidity;BMP_temperature;BMP_pressure;BME280_temperature;BME280_humidity;BME280_pressure;Samples;Min_cycle;Max_cycle;Signal;HPM_P1;HPM_P2
2021/11/05 00:00:12;;;;;;;83.33;50.43;;;7.80;99.90;;;;;;5099821;28;20449;-70
2021/11/05 00:02:39;;;;;;;80.90;48.40;;;7.90;99.90;;;;;;5100437;28;20467;-69
2021/11/05 00:05:07;;;;;;;90.73;52.80;;;7.90;99.90;;;;;;5094002;28;20470;-69
2021/11/05 00:07:33;;;;;;;88.60;53.90;;;7.90;99.90;;;;;;5096510;28;20461;-69
2021/11/05 00:10:02;;;;;;;91.30;52.00;;;7.90;99.90;;;;;;5091942;28;20473;-69
2021/11/05 00:12:29;;;;;;;92.03;52.37;;;7.90;99.90;;;;;;5100526;28;20466;-69
2021/11/05 00:14:56;;;;;;;95.60;51.23;;;7.90;99.90;;;;;;5102095;28;20592;-69
2021/11/05 00:17:23;;;;;;;91.60;52.57;;;7.90;99.90;;;;;;5097905;28;20458;-69
2021/11/05 00:19:50;;;;;;;80.00;47.80;;;7.90;99.90;;;;;;5092461;28;21069;-71
2021/11/05 00:22:18;;;;;;;95.90;50.20;;;8.00;99.90;;;;;;5096873;28;20833;-68
2021/11/05 00:24:45;;;;;;;90.60;48.50;;;8.00;99.90;;;;;;5098005;28;20494;-71
2021/11/05 00:27:13;;;;;;;91.80;51.33;;;8.10;99.90;;;;;;5093289;28;20489;-72
2021/11/05 00:29:41;;;;;;;76.43;48.13;;;8.00;99.90;;;;;;5100225;28;20874;-71
2021/11/05 00:32:09;;;;;;;85.00;48.40;;;8.00;99.90;;;;;;5097716;28;20509;-68
2021/11/05 00:34:37;;;;;;;96.30;51.37;;;8.00;99.90;;;;;;5095389;28;20474;-68
2021/11/05 00:37:04;;;;;;;98.00;51.63;;;8.10;99.90;;;;;;5094590;28;21000;-71
2021/11/05 00:39:31;;;;;;;107.57;50.63;;;8.10;99.90;;;;;;5096812;28;20889;-69
2021/11/05 00:41:58;;;;;;;101.53;54.00;;;8.00;99.90;;;;;;5097006;28;20796;-72
2021/11/05 00:44:27;;;;;;;114.47;54.87;;;8.00;99.90;;;;;;5095604;28;20494;-72
2021/11/05 00:46:54;;;;;;;109.50;53.10;;;8.00;99.90;;;;;;5099655;28;20491;-70
2021/11/05 00:49:21;;;;;;;118.80;54.73;;;8.00;99.90;;;;;;5097877;28;20467;-70
2021/11/05 00:51:48;;;;;;;115.20;56.93;;;8.00;99.90;;;;;;5107350;28;20465;-70
2021/11/05 00:54:15;;;;;;;114.63;56.30;;;8.00;99.90;;;;;;5097392;28;20458;-71
2021/11/05 00:56:42;;;;;;;116.77;56.77;;;8.00;99.90;;;;;;5096445;28;21053;-70
2021/11/05 00:59:09;;;;;;;121.47;55.87;;;8.00;99.90;;;;;;5102863;28;20474;-70
2021/11/05 01:01:37;;;;;;;119.23;57.60;;;8.00;99.90;;;;;;5093835;28;20466;-73
2021/11/05 01:04:05;;;;;;;122.47;58.67;;;8.00;99.90;;;;;;5096347;28;20473;-73
2021/11/05 01:06:32;;;;;;;129.90;56.80;;;7.90;99.90;;;;;;5108813;28;20460;-70
2021/11/05 01:09:00;;;;;;;107.47;55.53;;;8.00;99.90;;;;;;5096157;28;20454;-73
2021/11/05 01:11:28;;;;;;;122.87;56.83;;;8.00;99.90;;;;;;5097518;28;20461;-73
2021/11/05 01:13:54;;;;;;;117.30;55.90;;;7.90;99.90;;;;;;5104862;28;20456;-72
2021/11/05 01:16:22;;;;;;;100.17;51.97;;;7.90;99.90;;;;;;5103711;28;20480;-73
2021/11/05 01:18:50;;;;;;;93.40;50.33;;;7.90;99.90;;;;;;5103719;28;20464;-72
2021/11/05 01:21:17;;;;;;;102.30;52.80;;;7.90;99.90;;;;;;5105133;28;20846;-71
2021/11/05 01:23:45;;;;;;;107.07;53.10;;;7.90;99.90;;;;;;5103311;28;21004;-73
2021/11/05 01:26:12;;;;;;;100.30;51.07;;;7.90;99.90;;;;;;5104853;28;20457;-72
2021/11/05 01:28:39;;;;;;;105.00;49.47;;;7.90;99.90;;;;;;5102669;28;20503;-70
2021/11/05 01:31:06;;;;;;;100.63;50.80;;;8.00;99.90;;;;;;5105150;28;20510;-70
2021/11/05 01:33:34;;;;;;;92.07;47.03;;;8.00;99.90;;;;;;5099908;28;20469;-72
2021/11/05 01:36:02;;;;;;;81.37;44.27;;;8.00;99.90;;;;;;5106607;28;20559;-73
2021/11/05 01:38:29;;;;;;;91.33;42.60;;;8.00;99.90;;;;;;5102992;28;20527;-70
2021/11/05 01:40:56;;;;;;;69.17;37.03;;;8.00;99.90;;;;;;5100854;28;20544;-70
2021/11/05 01:43:24;;;;;;;53.30;33.00;;;7.90;99.90;;;;;;5105233;28;20484;-73
2021/11/05 01:45:51;;;;;;;54.10;33.07;;;7.80;99.90;;;;;;5106161;28;20541;-72
2021/11/05 01:48:19;;;;;;;57.97;36.33;;;7.80;99.90;;;;;;5100437;28;20458;-71
2021/11/05 01:50:46;;;;;;;67.10;37.20;;;7.70;99.90;;;;;;5100369;28;20461;-72
2021/11/05 01:53:15;;;;;;;62.83;36.53;;;7.80;99.90;;;;;;5097599;28;20466;-69
2021/11/05 01:55:44;;;;;;;76.77;39.90;;;7.80;99.90;;;;;;5093780;28;20554;-73
2021/11/05 01:58:10;;;;;;;68.00;38.67;;;7.70;99.90;;;;;;5094344;28;20460;-70
2021/11/05 02:00:39;;;;;;;71.97;37.50;;;7.80;99.90;;;;;;5095513;28;20460;-71
2021/11/05 02:03:06;;;;;;;68.93;38.03;;;7.80;99.90;;;;;;5094267;28;20539;-73
2021/11/05 02:05:34;;;;;;;67.93;37.27;;;7.90;99.90;;;;;;5096363;28;20463;-71
2021/11/05 02:08:03;;;;;;;66.53;37.70;;;7.90;99.90;;;;;;5099009;28;20809;-73
2021/11/05 02:10:33;;;;;;;68.03;37.73;;;7.90;99.90;;;;;;5099529;28;20478;-71
2021/11/05 02:13:00;;;;;;;69.40;37.73;;;7.90;99.90;;;;;;5094529;28;20815;-72
2021/11/05 02:15:27;;;;;;;70.50;32.60;;;7.90;99.90;;;;;;5093898;28;20483;-70
2021/11/05 02:17:55;;;;;;;63.00;35.03;;;7.90;99.90;;;;;;5091402;28;20459;-70
2021/11/05 02:20:26;;;;;;;50.73;31.47;;;7.80;99.90;;;;;;5095273;28;20540;-71
2021/11/05 02:22:56;;;;;;;60.80;33.77;;;7.80;99.90;;;;;;5097792;28;20459;-71
2021/11/05 02:25:25;;;;;;;75.13;34.50;;;7.90;99.90;;;;;;5092994;28;20848;-72
2021/11/05 02:27:54;;;;;;;61.87;32.87;;;7.80;99.90;;;;;;5096792;28;20470;-70
2021/11/05 02:30:22;;;;;;;64.00;34.33;;;7.80;99.90;;;;;;5095798;28;20481;-70
2021/11/05 02:32:49;;;;;;;56.77;33.73;;;7.90;99.90;;;;;;5090567;28;20460;-70
2021/11/05 02:35:17;;;;;;;71.87;34.70;;;7.90;99.90;;;;;;5088766;28;20594;-70
2021/11/05 02:37:46;;;;;;;65.87;35.90;;;7.90;99.90;;;;;;5096059;28;20488;-70
2021/11/05 02:40:16;;;;;;;72.53;38.07;;;7.90;99.90;;;;;;5088516;28;20466;-71
2021/11/05 02:42:44;;;;;;;60.53;34.03;;;7.90;99.90;;;;;;5095673;28;20497;-70
2021/11/05 02:45:11;;;;;;;63.20;35.20;;;7.90;99.90;;;;;;5096658;28;20852;-70
2021/11/05 02:47:39;;;;;;;62.00;33.43;;;7.90;99.90;;;;;;5101106;28;20449;-71
2021/11/05 02:50:09;;;;;;;70.87;35.90;;;7.90;99.90;;;;;;5090985;28;20470;-70
2021/11/05 02:52:36;;;;;;;72.63;38.27;;;7.90;99.90;;;;;;5101702;28;20461;-69
2021/11/05 02:55:05;;;;;;;75.17;38.70;;;7.90;99.90;;;;;;5100423;28;20494;-70
2021/11/05 02:57:34;;;;;;;77.33;39.80;;;7.80;99.90;;;;;;5098060;28;20456;-70
2021/11/05 03:00:01;;;;;;;98.50;43.63;;;7.90;99.90;;;;;;5096342;28;20463;-70
2021/11/05 03:02:28;;;;;;;81.17;43.60;;;7.80;99.90;;;;;;5097803;28;20777;-72
2021/11/05 03:04:55;;;;;;;91.27;42.10;;;7.80;99.90;;;;;;5093741;28;20510;-69
2021/11/05 03:07:22;;;;;;;80.07;39.67;;;7.80;99.90;;;;;;5096418;28;20487;-69
2021/11/05 03:09:50;;;;;;;82.20;42.50;;;7.80;99.90;;;;;;5095418;28;20474;-70
2021/11/05 03:12:17;;;;;;;99.73;46.37;;;7.80;99.90;;;;;;5098710;28;20465;-70
2021/11/05 03:14:46;;;;;;;102.53;50.73;;;7.80;99.90;;;;;;5095193;28;20457;-71
2021/11/05 03:17:14;;;;;;;110.53;53.33;;;7.90;99.90;;;;;;5096280;28;20555;-70
2021/11/05 03:19:43;;;;;;;123.90;57.33;;;7.90;99.90;;;;;;5092252;28;20468;-73
2021/11/05 03:22:10;;;;;;;129.03;54.83;;;7.90;99.90;;;;;;5090289;28;20482;-73
2021/11/05 03:24:37;;;;;;;115.97;54.40;;;7.90;99.90;;;;;;5091953;28;20492;-69
2021/11/05 03:27:05;;;;;;;108.70;55.30;;;7.90;99.90;;;;;;5090490;28;20461;-69
2021/11/05 03:29:32;;;;;;;100.13;50.13;;;7.90;99.90;;;;;;5103397;28;20454;-70
2021/11/05 03:32:01;;;;;;;82.23;47.50;;;7.90;99.90;;;;;;5097127;28;20484;-71
2021/11/05 03:34:28;;;;;;;76.13;45.10;;;7.90;99.90;;;;;;5093561;28;20462;-69
2021/11/05 03:36:56;;;;;;;87.77;46.20;;;7.90;99.90;;;;;;5095990;28;20455;-69
2021/11/05 03:39:24;;;;;;;84.43;45.47;;;7.80;99.90;;;;;;5091864;28;20462;-71
2021/11/05 03:41:51;;;;;;;86.63;47.33;;;7.70;99.90;;;;;;5094737;28;20534;-72
2021/11/05 03:44:17;;;;;;;68.80;45.60;;;7.60;99.90;;;;;;5095006;28;20487;-71
2021/11/05 03:46:44;;;;;;;72.83;43.60;;;7.60;99.90;;;;;;5096663;28;20465;-73
2021/11/05 03:49:13;;;;;;;72.57;42.07;;;7.60;99.90;;;;;;5094370;28;20571;-70
2021/11/05 03:51:39;;;;;;;80.07;44.43;;;7.50;99.90;;;;;;5099050;28;20459;-70
2021/11/05 03:54:08;;;;;;;72.13;41.13;;;7.50;99.90;;;;;;5090014;28;20471;-70
2021/11/05 03:56:35;;;;;;;72.17;45.13;;;7.50;99.90;;;;;;5088465;28;20493;-70
2021/11/05 03:59:03;;;;;;;67.90;42.93;;;7.50;99.90;;;;;;5096307;28;20465;-70
2021/11/05 04:01:31;;;;;;;69.50;43.60;;;7.50;99.90;;;;;;5097144;28;20962;-70
2021/11/05 04:03:59;;;;;;;65.60;43.93;;;7.50;99.90;;;;;;5094495;28;20485;-70
2021/11/05 04:06:27;;;;;;;68.07;42.07;;;7.50;99.90;;;;;;5092757;28;20462;-70
2021/11/05 04:08:54;;;;;;;64.60;41.23;;;7.40;99.90;;;;;;5101266;28;20469;-70
2021/11/05 04:11:21;;;;;;;60.43;40.87;;;7.50;99.90;;;;;;5093149;28;20525;-70
2021/11/05 04:13:49;;;;;;;52.07;40.40;;;7.40;99.90;;;;;;5090993;28;20467;-70
2021/11/05 04:16:16;;;;;;;62.47;38.40;;;7.40;99.90;;;;;;5093972;28;20496;-70
2021/11/05 04:18:43;;;;;;;64.87;44.00;;;7.30;99.90;;;;;;5095680;28;20457;-73
2021/11/05 04:21:10;;;;;;;66.37;43.30;;;7.30;99.90;;;;;;5092983;28;20950;-71
2021/11/05 04:23:39;;;;;;;78.33;46.40;;;7.20;99.90;;;;;;5093392;28;20453;-70
2021/11/05 04:26:06;;;;;;;68.97;43.77;;;7.20;99.90;;;;;;5094357;28;20463;-70
2021/11/05 04:28:33;;;;;;;66.77;43.33;;;7.20;99.90;;;;;;5093776;28;20465;-71
2021/11/05 04:31:02;;;;;;;61.77;42.90;;;7.10;99.90;;;;;;5100532;28;20518;-72
2021/11/05 04:33:31;;;;;;;71.73;42.87;;;7.20;99.90;;;;;;5097312;28;20464;-71
2021/11/05 04:35:58;;;;;;;61.63;42.17;;;7.20;99.90;;;;;;5099314;28;20464;-70
2021/11/05 04:38:25;;;;;;;66.27;42.57;;;7.20;99.90;;;;;;5097894;28;20466;-73
2021/11/05 04:40:54;;;;;;;65.60;41.50;;;7.20;99.90;;;;;;5100331;28;21023;-70
2021/11/05 04:43:20;;;;;;;63.17;40.30;;;7.30;99.90;;;;;;5091697;28;20471;-71
2021/11/05 04:45:47;;;;;;;76.00;48.03;;;7.20;99.90;;;;;;5097727;28;20503;-70
2021/11/05 04:48:15;;;;;;;84.60;50.53;;;7.30;99.90;;;;;;5099081;28;20457;-74
2021/11/05 04:50:42;;;;;;;74.53;47.20;;;7.20;99.90;;;;;;5100066;28;20482;-71
2021/11/05 04:53:10;;;;;;;66.63;44.90;;;7.20;99.90;;;;;;5096578;28;20465;-68
2021/11/05 04:55:38;;;;;;;67.33;44.07;;;7.20;99.90;;;;;;5097300;28;20495;-69
2021/11/05 04:58:06;;;;;;;65.97;46.60;;;7.10;99.90;;;;;;5091493;28;20465;-70
2021/11/05 05:00:33;;;;;;;65.17;46.40;;;7.10;99.90;;;;;;5099238;28;20832;-72
2021/11/05 05:03:00;;;;;;;62.03;44.00;;;7.10;99.90;;;;;;5084049;28;20458;-68
2021/11/05 05:05:27;;;;;;;61.20;46.20;;;7.00;99.90;;;;;;5093453;28;20492;-68
2021/11/05 05:07:54;;;;;;;58.67;44.80;;;7.00;99.90;;;;;;5096146;28;20523;-70
2021/11/05 05:10:22;;;;;;;54.53;41.93;;;7.00;99.90;;;;;;5099088;28;20466;-72
2021/11/05 05:12:50;;;;;;;51.70;38.83;;;7.10;99.90;;;;;;5098735;28;20472;-68
2021/11/05 05:15:19;;;;;;;55.23;40.17;;;7.10;99.90;;;;;;5098118;28;20477;-69
2021/11/05 05:17:46;;;;;;;54.13;39.33;;;7.10;99.90;;;;;;5094769;28;20557;-71
2021/11/05 05:20:17;;;;;;;56.73;39.33;;;7.10;99.90;;;;;;5101099;28;20501;-71
2021/11/05 05:22:45;;;;;;;44.73;36.17;;;7.10;99.90;;;;;;5090176;28;20456;-68
2021/11/05 05:25:13;;;;;;;42.10;34.00;;;7.10;99.90;;;;;;5093820;28;20503;-68
2021/11/05 05:27:41;;;;;;;42.97;35.80;;;7.10;99.90;;;;;;5096281;28;20970;-69
2021/11/05 05:30:12;;;;;;;47.10;35.80;;;7.10;99.90;;;;;;5096315;28;20505;-71
2021/11/05 05:32:40;;;;;;;41.20;35.47;;;7.20;99.90;;;;;;5089510;28;20450;-69
2021/11/05 05:35:08;;;;;;;43.50;34.80;;;7.20;99.90;;;;;;5093967;28;20450;-71
2021/11/05 05:37:35;;;;;;;46.17;37.00;;;7.20;99.90;;;;;;5097724;28;20465;-68
2021/11/05 05:40:03;;;;;;;42.23;35.47;;;7.20;99.90;;;;;;5101131;28;20472;-71
2021/11/05 05:42:30;;;;;;;41.70;37.20;;;7.10;99.90;;;;;;5093733;28;20454;-71
2021/11/05 05:44:58;;;;;;;43.67;38.13;;;7.10;99.90;;;;;;5093460;28;20521;-69
2021/11/05 05:47:25;;;;;;;44.33;36.50;;;7.10;99.90;;;;;;5095494;28;20460;-68
2021/11/05 05:49:54;;;;;;;59.33;38.03;;;7.20;99.90;;;;;;5097677;28;20465;-68
2021/11/05 05:52:22;;;;;;;45.50;36.30;;;7.20;99.90;;;;;;5098522;28;20454;-68
2021/11/05 05:54:49;;;;;;;41.97;37.37;;;7.20;99.90;;;;;;5097870;28;20866;-69
2021/11/05 05:57:16;;;;;;;40.60;33.40;;;7.20;99.90;;;;;;5095774;28;20988;-69
2021/11/05 05:59:43;;;;;;;39.57;35.47;;;7.20;99.90;;;;;;5089375;28;20469;-68
2021/11/05 06:02:10;;;;;;;43.20;35.70;;;7.20;99.90;;;;;;5091198;28;20468;-68
2021/11/05 06:04:37;;;;;;;40.50;36.07;;;7.20;99.90;;;;;;5101934;28;20501;-68
2021/11/05 06:07:06;;;;;;;48.30;38.43;;;7.20;99.90;;;;;;5096360;28;20466;-70
2021/11/05 06:09:33;;;;;;;48.43;36.97;;;7.00;99.90;;;;;;5090818;28;20473;-71
2021/11/05 06:12:01;;;;;;;50.20;39.20;;;7.00;99.90;;;;;;5099943;28;20458;-69
2021/11/05 06:14:28;;;;;;;51.00;37.43;;;7.10;99.90;;;;;;5098690;28;20461;-70
2021/11/05 06:16:55;;;;;;;55.00;40.37;;;7.10;99.90;;;;;;5099611;28;20472;-68
2021/11/05 06:19:22;;;;;;;46.00;39.70;;;7.00;99.90;;;;;;5092247;28;20470;-68
2021/11/05 06:21:49;;;;;;;50.77;39.70;;;6.90;99.90;;;;;;5089102;28;20485;-71
2021/11/05 06:24:17;;;;;;;49.53;37.40;;;7.00;99.90;;;;;;5097181;28;20626;-72
2021/11/05 06:26:44;;;;;;;53.53;38.67;;;6.90;99.90;;;;;;5097865;28;20468;-72
2021/11/05 06:29:11;;;;;;;42.90;38.20;;;7.00;99.90;;;;;;5096428;28;20458;-72
2021/11/05 06:31:38;;;;;;;44.10;37.07;;;6.90;99.90;;;;;;5093311;28;20508;-68
2021/11/05 06:34:06;;;;;;;47.17;39.67;;;6.90;99.90;;;;;;5093224;28;20458;-69
2021/11/05 06:36:33;;;;;;;44.57;37.37;;;6.90;99.90;;;;;;5096033;28;20461;-71
2021/11/05 06:39:01;;;;;;;45.47;36.97;;;6.90;99.90;;;;;;5088782;28;20458;-71
2021/11/05 06:41:29;;;;;;;50.70;40.83;;;6.80;99.90;;;;;;5085649;28;20866;-69
2021/11/05 06:43:57;;;;;;;48.27;40.63;;;6.90;99.90;;;;;;5084217;28;20454;-69
2021/11/05 06:46:24;;;;;;;53.43;41.50;;;7.00;99.90;;;;;;5085650;28;20576;-69
2021/11/05 06:48:51;;;;;;;61.40;48.63;;;7.00;99.90;;;;;;5094186;28;20548;-68
2021/11/05 06:51:19;;;;;;;66.37;48.93;;;7.00;99.90;;;;;;5087144;28;20467;-68
2021/11/05 06:53:46;;;;;;;68.20;49.17;;;7.10;99.90;;;;;;5091122;28;20474;-69
2021/11/05 06:56:12;;;;;;;56.70;47.77;;;7.10;99.90;;;;;;5093368;28;20468;-69
2021/11/05 06:58:42;;;;;;;63.53;46.13;;;7.10;99.90;;;;;;5089194;28;20788;-68
2021/11/05 07:01:10;;;;;;;67.07;48.77;;;7.20;99.90;;;;;;5093763;28;20576;-68
2021/11/05 07:03:37;;;;;;;55.97;46.57;;;7.20;99.90;;;;;;5098726;28;20468;-72
2021/11/05 07:06:05;;;;;;;55.30;44.27;;;7.30;99.90;;;;;;5099803;28;20488;-69
2021/11/05 07:08:32;;;;;;;55.13;44.27;;;7.30;99.90;;;;;;5095998;28;20458;-70
2021/11/05 07:10:59;;;;;;;52.40;44.20;;;7.30;99.90;;;;;;5099272;28;20468;-68
2021/11/05 07:13:26;;;;;;;64.63;40.33;;;7.30;99.90;;;;;;5092748;28;20936;-68
2021/11/05 07:15:55;;;;;;;47.50;39.60;;;7.40;99.90;;;;;;5096895;28;20471;-68
2021/11/05 07:18:23;;;;;;;47.37;40.77;;;7.50;99.90;;;;;;5093432;28;20877;-69
2021/11/05 07:20:51;;;;;;;42.20;34.93;;;7.40;99.90;;;;;;5098209;28;20616;-68
2021/11/05 07:23:18;;;;;;;43.00;38.17;;;7.40;99.90;;;;;;5097745;28;20553;-68
2021/11/05 07:25:46;;;;;;;41.87;34.63;;;7.50;99.90;;;;;;5099429;28;21008;-68
2021/11/05 07:28:13;;;;;;;40.63;35.23;;;7.50;99.90;;;;;;5097256;28;20467;-68
2021/11/05 07:30:40;;;;;;;45.20;36.23;;;7.50;99.90;;;;;;5096244;28;20836;-68
2021/11/05 07:33:09;;;;;;;43.90;35.50;;;7.50;99.90;;;;;;5093989;28;21080;-68
2021/11/05 07:35:36;;;;;;;42.17;35.73;;;7.60;99.90;;;;;;5098681;28;20537;-71
2021/11/05 07:38:03;;;;;;;39.90;35.90;;;7.60;99.90;;;;;;5092522;28;20516;-69
2021/11/05 07:40:31;;;;;;;43.40;34.87;;;7.70;99.90;;;;;;5082930;28;20453;-69
2021/11/05 07:42:58;;;;;;;40.60;34.03;;;7.80;99.90;;;;;;5083917;28;20459;-69
2021/11/05 07:45:26;;;;;;;41.77;34.37;;;7.90;99.90;;;;;;5087940;28;21047;-68
2021/11/05 07:47:55;;;;;;;42.83;34.13;;;8.00;99.90;;;;;;5086334;28;20461;-68
2021/11/05 07:50:25;;;;;;;51.43;37.93;;;8.00;99.90;;;;;;5088086;28;20484;-69
2021/11/05 07:52:51;;;;;;;37.73;33.57;;;8.10;99.90;;;;;;5090541;28;20464;-71
2021/11/05 07:55:19;;;;;;;42.73;37.33;;;8.10;99.90;;;;;;5090015;28;20464;-68
2021/11/05 07:57:46;;;;;;;38.10;33.13;;;8.30;99.90;;;;;;5090978;28;21268;-71
2021/11/05 08:00:14;;;;;;;36.00;32.13;;;8.40;99.90;;;;;;5091263;28;20911;-69
2021/11/05 08:02:41;;;;;;;41.30;33.50;;;8.40;99.90;;;;;;5093687;28;20457;-68
2021/11/05 08:05:09;;;;;;;39.13;32.53;;;8.30;99.90;;;;;;5096678;28;22358;-69
2021/11/05 08:07:37;;;;;;;38.10;32.53;;;8.30;99.90;;;;;;5092653;28;20470;-68
2021/11/05 08:10:05;;;;;;;40.40;33.07;;;8.30;99.90;;;;;;5090483;28;20493;-68
2021/11/05 08:12:32;;;;;;;40.13;33.13;;;8.10;99.90;;;;;;5093565;28;20465;-68
2021/11/05 08:14:59;;;;;;;38.80;32.93;;;8.00;99.90;;;;;;5090218;28;20557;-71
2021/11/05 08:17:26;;;;;;;38.53;31.83;;;7.90;99.90;;;;;;5093039;28;20465;-68
2021/11/05 08:19:53;;;;;;;38.93;34.17;;;7.80;99.90;;;;;;5086731;28;20467;-68
2021/11/05 08:22:20;;;;;;;44.00;34.73;;;7.80;99.90;;;;;;5094868;28;20784;-70
2021/11/05 08:24:51;;;;;;;41.00;34.27;;;7.80;99.90;;;;;;5093804;28;20594;-71
2021/11/05 08:27:19;;;;;;;38.17;33.53;;;7.70;99.90;;;;;;5087002;28;20497;-68
2021/11/05 08:29:46;;;;;;;40.00;34.43;;;7.70;99.90;;;;;;5090150;28;20859;-69
2021/11/05 08:32:13;;;;;;;37.77;32.70;;;7.70;99.90;;;;;;5097981;28;20488;-68
2021/11/05 08:34:40;;;;;;;44.60;36.47;;;7.80;99.90;;;;;;5093989;28;20468;-71
2021/11/05 08:37:08;;;;;;;42.63;36.70;;;7.90;99.90;;;;;;5096241;28;20951;-67
2021/11/05 08:39:35;;;;;;;39.83;33.43;;;8.00;99.90;;;;;;5086731;28;20473;-70
2021/11/05 08:42:04;;;;;;;42.73;36.50;;;8.10;99.90;;;;;;5093581;28;20472;-69
2021/11/05 08:44:32;;;;;;;44.90;35.50;;;8.00;99.90;;;;;;5091791;28;20535;-68
2021/11/05 08:46:59;;;;;;;43.13;36.00;;;8.00;99.90;;;;;;5090232;28;20496;-68
2021/11/05 08:49:27;;;;;;;41.33;34.63;;;8.00;99.90;;;;;;5096995;28;20454;-69
2021/11/05 08:51:54;;;;;;;41.43;34.70;;;8.10;99.90;;;;;;5096708;28;20548;-68
2021/11/05 08:54:21;;;;;;;51.60;35.47;;;8.10;99.90;;;;;;5094957;28;20458;-69
2021/11/05 08:56:48;;;;;;;39.87;31.37;;;8.20;99.90;;;;;;5088453;28;20476;-71
2021/11/05 08:59:18;;;;;;;37.47;33.77;;;8.30;99.90;;;;;;5092431;28;20464;-68
2021/11/05 09:01:45;;;;;;;39.33;32.70;;;8.30;99.90;;;;;;5096754;28;20457;-69
2021/11/05 09:04:12;;;;;;;38.80;33.23;;;8.40;99.90;;;;;;5091144;28;20449;-68
2021/11/05 09:06:40;;;;;;;36.67;32.17;;;8.40;99.90;;;;;;5095026;28;20576;-71
2021/11/05 09:09:06;;;;;;;36.53;32.00;;;8.30;99.90;;;;;;5094512;28;20468;-68
2021/11/05 09:11:33;;;;;;;36.77;30.30;;;8.30;99.90;;;;;;5092058;28;20496;-68
2021/11/05 09:14:00;;;;;;;38.83;32.27;;;8.30;99.90;;;;;;5091769;28;20464;-68
2021/11/05 09:16:29;;;;;;;34.87;31.20;;;8.40;99.90;;;;;;5094028;28;21216;-68
2021/11/05 09:18:57;;;;;;;38.40;31.17;;;8.50;99.90;;;;;;5097872;28;20480;-71
2021/11/05 09:21:23;;;;;;;40.83;33.00;;;8.80;99.90;;;;;;5093672;28;20484;-71
2021/11/05 09:23:50;;;;;;;34.77;30.80;;;9.00;99.90;;;;;;5093435;28;20484;-70
2021/11/05 09:26:17;;;;;;;43.73;29.50;;;9.10;99.90;;;;;;5092322;28;20475;-74
2021/11/05 09:28:44;;;;;;;33.83;30.20;;;9.10;99.90;;;;;;5095621;28;20471;-70
2021/11/05 09:31:11;;;;;;;37.13;30.57;;;9.20;99.90;;;;;;5094911;28;20493;-71
2021/11/05 09:33:39;;;;;;;31.77;28.47;;;9.20;99.90;;;;;;5084964;28;20464;-72
2021/11/05 09:36:07;;;;;;;32.53;29.00;;;9.20;99.90;;;;;;5091017;28;20467;-68
2021/11/05 09:38:33;;;;;;;31.23;26.77;;;9.10;99.90;;;;;;5091999;28;20552;-68
2021/11/05 09:41:01;;;;;;;32.03;27.70;;;9.20;99.90;;;;;;5092424;28;20459;-71
2021/11/05 09:43:28;;;;;;;33.37;29.50;;;9.10;99.90;;;;;;5090217;28;21246;-68
2021/11/05 09:45:55;;;;;;;30.33;27.33;;;9.10;99.90;;;;;;5095780;28;20850;-68
2021/11/05 09:48:22;;;;;;;32.73;28.57;;;9.00;99.90;;;;;;5090760;28;20478;-68
2021/11/05 09:50:50;;;;;;;30.77;27.20;;;9.10;99.90;;;;;;5091135;28;20572;-71
2021/11/05 09:53:17;;;;;;;31.13;28.03;;;9.20;99.90;;;;;;5093055;28;20461;-68
2021/11/05 09:55:47;;;;;;;33.80;26.23;;;9.30;99.90;;;;;;5093454;28;20476;-70
2021/11/05 09:58:17;;;;;;;31.33;27.50;;;9.30;99.90;;;;;;5092619;28;20548;-69
2021/11/05 10:00:44;;;;;;;30.17;27.07;;;9.40;99.90;;;;;;5090752;28;20471;-68
2021/11/05 10:03:11;;;;;;;27.93;24.93;;;9.50;99.90;;;;;;5090213;28;20474;-68
2021/11/05 10:05:38;;;;;;;27.40;24.50;;;9.70;99.90;;;;;;5087252;28;20464;-68
2021/11/05 10:08:08;;;;;;;29.93;26.73;;;9.80;99.90;;;;;;5087690;28;20978;-71
2021/11/05 10:10:42;;;;;;;30.13;25.50;;;10.30;99.90;;;;;;5084582;28;20473;-68
2021/11/05 10:13:10;;;;;;;29.20;24.40;;;10.60;99.90;;;;;;5097870;28;20457;-69
2021/11/05 10:15:41;;;;;;;28.90;26.07;;;10.90;99.90;;;;;;5087996;28;20465;-68
2021/11/05 10:18:17;;;;;;;27.23;24.37;;;11.10;99.90;;;;;;5090427;28;20634;-68
2021/11/05 10:20:46;;;;;;;25.67;23.17;;;11.30;99.90;;;;;;5089360;28;20575;-72
2021/11/05 10:23:16;;;;;;;27.83;24.93;;;11.50;99.90;;;;;;5090331;28;20461;-69
2021/11/05 10:25:47;;;;;;;27.70;25.20;;;11.60;99.90;;;;;;5090828;28;20469;-70
2021/11/05 10:28:19;;;;;;;26.23;24.10;;;11.70;99.90;;;;;;5098335;28;21111;-70
2021/11/05 10:31:01;;;;;;;25.70;23.30;;;11.80;99.90;;;;;;5093824;28;20878;-69
2021/11/05 10:33:30;;;;;;;25.80;23.17;;;11.90;99.90;;;;;;5087774;28;20468;-72
2021/11/05 10:36:00;;;;;;;28.73;24.13;;;12.30;99.90;;;;;;5091854;28;20460;-69
2021/11/05 10:38:33;;;;;;;27.30;24.67;;;13.00;99.90;;;;;;5089274;28;20458;-71
2021/11/05 10:41:02;;;;;;;26.57;24.00;;;13.00;99.90;;;;;;5098192;28;20973;-68
2021/11/05 10:43:33;;;;;;;23.97;22.10;;;13.00;99.90;;;;;;5092608;28;20457;-71
2021/11/05 10:46:01;;;;;;;25.43;23.17;;;12.60;99.90;;;;;;5090404;28;20523;-69
2021/11/05 10:48:30;;;;;;;23.43;21.53;;;12.30;99.90;;;;;;5090349;28;20897;-69
2021/11/05 10:50:59;;;;;;;27.03;24.50;;;12.10;99.90;;;;;;5089277;28;20460;-73
2021/11/05 10:53:32;;;;;;;26.43;23.77;;;12.00;99.90;;;;;;5090471;28;21037;-72
2021/11/05 10:56:01;;;;;;;24.27;22.23;;;12.00;99.90;;;;;;5092481;28;20767;-72
2021/11/05 10:58:32;;;;;;;21.60;19.70;;;12.10;99.90;;;;;;5080880;28;20522;-69
2021/11/05 11:01:00;;;;;;;22.67;20.33;;;12.30;99.90;;;;;;5099439;28;20461;-69
2021/11/05 11:03:32;;;;;;;19.17;17.73;;;12.90;99.90;;;;;;5087539;28;21150;-69
2021/11/05 11:06:10;;;;;;;20.57;18.87;;;13.40;99.90;;;;;;5092928;28;20470;-69
2021/11/05 11:08:41;;;;;;;20.20;18.53;;;13.90;99.90;;;;;;5087153;28;20553;-69
2021/11/05 11:11:18;;;;;;;19.40;17.93;;;13.90;99.90;;;;;;5095172;28;20458;-69
2021/11/05 11:13:46;;;;;;;20.47;18.67;;;13.60;99.90;;;;;;5082091;28;20883;-72
2021/11/05 11:16:19;;;;;;;20.10;18.43;;;13.60;99.90;;;;;;5088768;28;20466;-68
2021/11/05 11:18:52;;;;;;;21.33;19.07;;;13.20;99.90;;;;;;5081474;28;20470;-68
2021/11/05 11:21:20;;;;;;;19.73;18.30;;;13.00;99.90;;;;;;5088527;28;20495;-69
2021/11/05 11:23:48;;;;;;;21.60;19.50;;;12.60;99.90;;;;;;5089321;28;20560;-69
2021/11/05 11:26:16;;;;;;;20.67;18.97;;;12.60;99.90;;;;;;5101177;28;20495;-68
2021/11/05 11:28:44;;;;;;;19.93;18.50;;;12.60;99.90;;;;;;5098688;28;20468;-68
2021/11/05 11:31:12;;;;;;;21.07;19.13;;;12.50;99.90;;;;;;5090344;28;20577;-68
2021/11/05 11:33:40;;;;;;;20.60;19.00;;;12.40;99.90;;;;;;5086411;28;20545;-69
2021/11/05 11:36:08;;;;;;;21.33;19.20;;;12.60;99.90;;;;;;5090670;28;20472;-70
2021/11/05 11:38:35;;;;;;;19.13;17.73;;;12.60;99.90;;;;;;5091607;28;20841;-68
2021/11/05 11:41:07;;;;;;;19.67;18.00;;;12.90;99.90;;;;;;5094267;28;20458;-69
2021/11/05 11:43:35;;;;;;;19.80;18.33;;;13.70;99.90;;;;;;5087395;28;20465;-71
2021/11/05 11:46:02;;;;;;;18.67;16.97;;;14.10;99.90;;;;;;5093474;28;20961;-71
2021/11/05 11:48:53;;;;;;;19.57;17.87;;;14.30;99.90;;;;;;5094968;28;20457;-68
2021/11/05 11:51:27;;;;;;;18.97;17.47;;;14.30;99.90;;;;;;5095045;28;20457;-69
2021/11/05 11:53:56;;;;;;;19.47;17.60;;;14.90;99.90;;;;;;5093082;28;20457;-69
2021/11/05 11:56:27;;;;;;;19.77;17.97;;;15.30;99.90;;;;;;5095205;28;20461;-69
2021/11/05 11:58:56;;;;;;;19.67;18.03;;;15.40;99.90;;;;;;5086052;28;20696;-69
2021/11/05 12:01:26;;;;;;;19.90;18.13;;;15.20;99.90;;;;;;5092800;28;20458;-69
2021/11/05 12:03:56;;;;;;;18.83;17.30;;;15.00;99.90;;;;;;5093945;28;20484;-69
2021/11/05 12:06:24;;;;;;;23.27;17.97;;;14.80;99.90;;;;;;5089224;28;20846;-69
2021/11/05 12:08:51;;;;;;;19.43;18.00;;;14.60;99.90;;;;;;5092056;28;20465;-69
2021/11/05 12:11:27;;;;;;;20.80;19.10;;;14.50;99.90;;;;;;5094467;28;20496;-69
2021/11/05 12:14:15;;;;;;;20.13;18.53;;;14.60;99.90;;;;;;5089030;28;20824;-69
2021/11/05 12:16:42;;;;;;;20.70;18.90;;;14.50;99.90;;;;;;5095351;28;20778;-69
2021/11/05 12:19:22;;;;;;;21.53;19.47;;;14.40;99.90;;;;;;5091935;28;20465;-69
2021/11/05 12:22:11;;;;;;;20.83;18.93;;;14.50;99.90;;;;;;5090302;28;20486;-68
2021/11/05 12:24:39;;;;;;;19.57;17.90;;;14.20;99.90;;;;;;5091514;28;20470;-71
2021/11/05 12:27:24;;;;;;;19.73;17.67;;;14.10;99.90;;;;;;5093287;28;20484;-70
2021/11/05 12:30:00;;;;;;;19.43;17.70;;;14.00;99.90;;;;;;5092768;28;20496;-69
2021/11/05 12:32:35;;;;;;;19.10;17.67;;;14.00;99.90;;;;;;5095011;28;20501;-69
2021/11/05 12:35:28;;;;;;;19.13;17.47;;;13.90;99.90;;;;;;5091655;28;20460;-71
2021/11/05 12:37:58;;;;;;;19.03;17.57;;;13.80;99.90;;;;;;5095340;28;20461;-69